Flight Track Log - Related Links

Times and Time Zones

All times are in EDT time to prevent confusion due to time zone crossing. See the ASQ5740 flight status page for this flight to view local times or setup timezone preferences in your user account.

Time Position Orientation Groundspeed Altitude Reporting Facility
EDT Latitude Longitude Course Direction KTS MPH feet Rate Location/Type
Sun 06:37:30 PM 36.2383 -80.0153 302° West 244 281 8,000  Level Atlanta Center
Sun 06:38:30 PM 36.2722 -80.0958 298° West 277 319 9,800 2,182 Climbing Atlanta Center
Sun 06:39:31 PM 36.3083 -80.1817 298° West 272 313 12,400 1,835 Climbing Atlanta Center
Sun 06:40:00 PM 36.3721 -80.4348 304° West  Level FlightAware Approximate
Sun 06:40:31 PM 36.3489 -80.2753 298° West 285 328 13,500  Level Atlanta Center
Sun 06:41:00 PM 36.4181 -80.5188 310° West  Level FlightAware Approximate
Sun 06:41:30 PM 36.3936 -80.3789 298° West 315 362 14,500  Level Atlanta Center
Sun 06:42:00 PM 36.4668 -80.6003 302° West  Level FlightAware Approximate
Sun 06:42:30 PM 36.4364 -80.4828 297° West 351 404 15,500  Level Atlanta Center
Sun 06:43:30 PM 36.4942 -80.6092 300° West 375 432 17,000 1,289 Climbing Atlanta Center
Sun 06:44:31 PM 36.5453 -80.7258 299° West 383 441 18,100 1,091 Climbing Atlanta Center
Sun 06:45:31 PM 36.5958 -80.8247 303° West 383 441 19,200 1,200 Climbing Atlanta Center
Sun 06:46:31 PM 36.6614 -80.9308 308° West 388 447 20,500 1,250 Climbing Atlanta Center
Sun 06:47:31 PM 36.7283 -81.0342 309° West 388 447 21,700 1,150 Climbing Atlanta Center
Sun 06:48:31 PM 36.7961 -81.1561 305° West 388 447 22,800 650 Climbing Atlanta Center
Sun 06:49:31 PM 36.8653 -81.2703 307° West 388 447 23,000 600 Climbing Atlanta Center
Sun 06:50:31 PM 36.9344 -81.3822 308° West 399 459 24,000 983 Climbing Atlanta Center
Sun 06:52:28 PM 37.0683 -81.5911 309° West 400 460 25,900 972 Climbing Indianapolis Center
Sun 06:53:30 PM 37.1342 -81.7003 307° West 395 455 26,900 871 Climbing Indianapolis Center
Sun 06:54:32 PM 37.1997 -81.8081 307° West 390 449 27,700 864 Climbing Indianapolis Center
Sun 06:55:35 PM 37.2750 -81.9339 307° West 387 445 28,700 864 Climbing Indianapolis Center
Sun 06:56:37 PM 37.3392 -82.0414 307° West 386 444 29,500 629 Climbing Indianapolis Center
Sun 06:57:39 PM 37.4033 -82.1472 307° West 382 440 30,000 242 Climbing Indianapolis Center
Sun 06:58:41 PM 37.4678 -82.2586 306° West 391 450 30,000  Level Indianapolis Center
Sun 06:59:43 PM 37.5353 -82.3711 307° West 401 461 30,000 339 Level Indianapolis Center
Sun 07:00:45 PM 37.6142 -82.5047 307° West 407 468 30,700 677 Climbing Indianapolis Center
Sun 07:01:47 PM 37.6794 -82.6153 307° West 397 457 31,400 677 Climbing Indianapolis Center
Sun 07:02:49 PM 37.7431 -82.7239 307° West 388 447 32,100 677 Climbing Indianapolis Center
Sun 07:03:51 PM 37.8056 -82.8306 307° West 380 437 32,800 677 Climbing Indianapolis Center
Sun 07:04:53 PM 37.8678 -82.9375 306° West 377 434 33,500 581 Climbing Indianapolis Center
Sun 07:05:55 PM 37.9372 -83.0578 306° West 365 420 34,000 242 Climbing Indianapolis Center
Sun 07:06:57 PM 37.9986 -83.1631 307° West 369 425 34,000  Level Indianapolis Center
Sun 07:07:59 PM 38.0614 -83.2731 306° West 383 441 34,000  Level Indianapolis Center
Sun 07:09:01 PM 38.1258 -83.3847 306° West 390 449 34,000  Level Indianapolis Center
Sun 07:10:03 PM 38.1894 -83.4981 306° West 393 452 34,000  Level Indianapolis Center
Sun 07:11:05 PM 38.2661 -83.6306 306° West 397 457 34,000  Level Indianapolis Center
Sun 07:12:07 PM 38.3311 -83.7478 305° West 403 464 34,000  Level Indianapolis Center
Sun 07:13:09 PM 38.3981 -83.8631 307° West 403 464 34,000  Level Indianapolis Center
Sun 07:14:11 PM 38.4647 -83.9806 306° West 407 468 34,000  Level Indianapolis Center
Sun 07:15:13 PM 38.5306 -84.0986 306° West 407 468 34,000  Level Indianapolis Center
Sun 07:16:15 PM 38.5964 -84.2172 305° West 411 473 34,000  Level Indianapolis Center
Sun 07:17:17 PM 38.6731 -84.3364 310° West 412 474 34,000  Level Indianapolis Center
Sun 07:18:18 PM 38.7600 -84.4375 318° Northwest 417 480 34,000 -146 Level Indianapolis Center
Sun 07:19:20 PM 38.8489 -84.5408 318° Northwest 422 486 33,700 -581 Descending Indianapolis Center
Sun 07:20:22 PM 38.9558 -84.6644 318° Northwest 436 502 32,800 -774 Descending Indianapolis Center
Sun 07:21:24 PM 39.0481 -84.7708 318° Northwest 439 505 32,100 -677 Descending Indianapolis Center
Sun 07:22:26 PM 39.1389 -84.8783 317° Northwest 440 506 31,400 -677 Descending Indianapolis Center
Sun 07:23:28 PM 39.2267 -84.9783 319° Northwest 428 493 30,700 -677 Descending Indianapolis Center
Sun 07:24:30 PM 39.3094 -85.0781 317° Northwest 409 471 30,000 -629 Descending Indianapolis Center
Sun 07:25:32 PM 39.4039 -85.1536 328° Northwest 403 464 29,400 -677 Descending Indianapolis Center
Sun 07:26:34 PM 39.5078 -85.2033 340° North 398 458 28,600 -677 Descending Indianapolis Center
Sun 07:27:36 PM 39.6342 -85.2639 340° North 411 473 28,000 -293 Descending Indianapolis Center
Sun 07:28:37 PM 39.7425 -85.3156 340° North 413 475 28,000 -195 Level Indianapolis Center
Sun 07:29:39 PM 39.8486 -85.3656 340° North 406 467 27,600 -532 Descending Indianapolis Center
Sun 07:30:41 PM 39.9583 -85.4189 340° North 417 480 26,900 -677 Descending Indianapolis Center
Sun 07:31:43 PM 40.0706 -85.4728 340° North 426 490 26,200 -529 Descending Indianapolis Center
Sun 07:32:23 PM 40.1461 -85.5072 341° North 432 497 26,000 -118 Descending Chicago Center
Sun 07:33:25 PM 40.2578 -85.5619 339° North 429 494 26,000  Level Chicago Center
Sun 07:34:27 PM 40.3653 -85.6706 322° Northwest 432 497 26,000  Level Chicago Center
Sun 07:35:29 PM 40.4456 -85.7875 312° West 430 495 26,000 -339 Level Chicago Center
Sun 07:36:31 PM 40.5269 -85.9100 311° West 439 505 25,300 -726 Descending Chicago Center
Sun 07:37:33 PM 40.6097 -86.0336 311° West 447 514 24,500 -829 Descending Chicago Center
Sun 07:38:34 PM 40.6936 -86.1636 310° West 434 499 23,600 -732 Descending Chicago Center
Sun 07:39:36 PM 40.7717 -86.2808 311° West 426 490 23,000 -290 Descending Chicago Center
Sun 07:40:38 PM 40.8461 -86.3939 311° West 411 473 23,000  Level Chicago Center
Sun 07:41:40 PM 40.9219 -86.5100 311° West 414 476 23,000  Level Chicago Center
Sun 07:42:42 PM 40.9975 -86.6267 311° West 416 479 23,000  Level Chicago Center
Sun 07:43:44 PM 41.0853 -86.7586 311° West 417 480 23,000 -581 Level Chicago Center
Sun 07:44:46 PM 41.1594 -86.8722 311° West 412 474 21,800 -1,742 Descending Chicago Center
Sun 07:45:48 PM 41.2311 -86.9836 311° West 400 460 19,400 -2,226 Descending Chicago Center
Sun 07:46:50 PM 41.2986 -87.0900 310° West 383 441 17,200 -2,371 Descending Chicago Center
Sun 07:47:52 PM 41.3822 -87.2142 312° West 377 434 14,500 -2,471 Descending Chicago Center
Sun 07:48:15 PM 41.4167 -87.2500 322° Northwest 368 423 13,700 -2,143 Descending Chicago TRACON
Sun 07:49:16 PM 41.4833 -87.3333 317° Northwest 359 413 11,500 -1,604 Descending Chicago TRACON
Sun 07:49:56 PM 41.5303 -87.3892 318° Northwest 356 410 11,000 -294 Descending Chicago Center
Sun 07:50:58 PM 41.6006 -87.4661 321° Northwest 336 387 11,000  Level Chicago Center
Sun 07:52:00 PM 41.6772 -87.5525 320° Northwest 360 414 11,000  Level Chicago Center
Sun 07:53:16 PM 41.8000 -87.6833 322° Northwest 374 430 11,000 -323 Level Chicago TRACON
Sun 07:54:10 PM 41.8500 -87.7500 315° West 317 365 10,300 -684 Descending Chicago TRACON
Sun 07:55:10 PM 41.8833 -87.8333 298° West 253 291 9,700 -800 Descending Chicago TRACON
Sun 07:56:10 PM 41.9167 -87.9167 298° West 223 257 8,700 -1,200 Descending Chicago TRACON
Sun 07:57:10 PM 41.9500 -87.9833 304° West 240 276 7,300 -850 Descending Chicago TRACON
Sun 07:58:10 PM 41.9667 -88.0667 285° West 234 269 7,000 -550 Descending Chicago TRACON
Sun 07:59:10 PM 42.0167 -88.1333 315° West 225 259 6,200 -992 Descending Chicago TRACON
Sun 08:00:11 PM 42.0667 -88.1667 334° Northwest 217 250 5,000 -595 Descending Chicago TRACON
Sun 08:01:11 PM 42.1167 -88.2000 334° Northwest 226 260 5,000 -579 Level Chicago TRACON
Sun 08:02:05 PM 42.1500 -88.1500 48° Northeast 238 274 3,900 -1,233 Descending Chicago TRACON
Sun 08:02:24 PM 42.1494 -88.1325 92° East 233 268 3,500 -1,091 Descending Chicago Center
Sun 08:03:11 PM 42.1167 -88.0667 124° Southeast 221 254 2,700 -653 Descending Chicago TRACON
Sun 08:04:05 PM 42.0833 -88.0333 143° Southeast 216 249 2,400 -474 Descending Chicago TRACON
Sun 08:05:05 PM 42.0333 -87.9833 143° Southeast 191 220 1,800 -684 Descending Chicago TRACON
Sun 08:05:59 PM 42.0000 -87.9500 143° Southeast 138 159 1,100 -778 Descending Chicago TRACON
Sun 08:07:00 PM 41.9817 -87.9067 117° Southeast  Level Estimated

Login

Don't have an account? Register now (free) for customized features, flight alerts, and more!